Time;durP1;ratioP1;P1;durP2;ratioP2;P2;SDS_P1;SDS_P2;PMS_P1;PMS_P2;Temp;Humidity;BMP_temperature;BMP_pressure;BME280_temperature;BME280_humidity;BME280_pressure;Samples;Min_cycle;Max_cycle;Signal;HPM_P1;HPM_P2
2022/08/18 00:02:48;;;;;;;29.58;22.83;;;20.00;99.90;;;;;;10295316;28;20570;-84
2022/08/18 00:07:48;;;;;;;32.53;26.02;;;19.90;99.90;;;;;;10283815;28;20054;-84
2022/08/18 00:12:49;;;;;;;29.63;22.10;;;19.80;99.90;;;;;;10287251;28;20042;-84
2022/08/18 00:17:49;;;;;;;34.63;25.38;;;19.70;99.90;;;;;;10309796;28;20038;-84
2022/08/18 00:22:51;;;;;;;26.33;20.70;;;19.80;99.90;;;;;;10311652;28;20550;-85
2022/08/18 00:27:51;;;;;;;29.10;21.27;;;19.70;99.90;;;;;;10312508;28;20026;-84
2022/08/18 00:32:55;;;;;;;29.17;22.15;;;19.80;99.90;;;;;;10318332;28;20042;-85
2022/08/18 00:37:58;;;;;;;29.35;21.15;;;19.70;99.90;;;;;;10312633;28;20029;-84
2022/08/18 00:43:03;;;;;;;31.92;24.05;;;19.80;99.90;;;;;;10269631;28;20034;-84
2022/08/18 00:48:05;;;;;;;;;;;19.70;99.90;;;;;;10307746;28;20425;-84
2022/08/18 00:53:12;;;;;;;298.58;222.07;;;19.70;99.90;;;;;;10316306;28;19921;-84
2022/08/18 00:58:20;;;;;;;33.80;23.88;;;19.60;99.90;;;;;;10280544;28;20709;-84
2022/08/18 01:03:22;;;;;;;37.65;25.83;;;19.60;99.90;;;;;;10293495;28;20125;-83
2022/08/18 01:08:23;;;;;;;25.75;12.80;;;19.60;99.90;;;;;;10294299;28;20142;-84
2022/08/18 01:13:29;;;;;;;35.85;25.42;;;19.50;99.90;;;;;;10290845;28;20487;-84
2022/08/18 01:23:51;;;;;;;28.13;20.80;;;19.30;99.90;;;;;;10293883;28;20475;-84
2022/08/18 01:28:52;;;;;;;38.08;24.15;;;19.30;99.90;;;;;;10295912;28;20109;-84
2022/08/18 01:33:53;;;;;;;39.95;26.35;;;19.30;99.90;;;;;;10290147;28;20038;-84
2022/08/18 01:38:54;;;;;;;32.25;24.77;;;19.30;99.90;;;;;;10296093;28;20034;-84
2022/08/18 01:43:54;;;;;;;35.45;22.77;;;19.20;99.90;;;;;;10287927;28;20035;-84
2022/08/18 01:48:59;;;;;;;39.60;28.38;;;19.10;99.90;;;;;;10292297;28;20046;-83
2022/08/18 01:54:02;;;;;;;37.17;25.27;;;19.10;99.90;;;;;;10293514;28;20186;-83
2022/08/18 01:59:03;;;;;;;36.95;26.27;;;19.30;99.90;;;;;;10295014;28;20070;-84
2022/08/18 02:04:06;;;;;;;32.97;23.02;;;19.30;99.90;;;;;;10287188;28;20088;-83
2022/08/18 02:09:06;;;;;;;38.05;24.55;;;19.20;99.90;;;;;;10271786;28;20474;-83
2022/08/18 02:14:07;;;;;;;44.70;31.90;;;19.20;99.90;;;;;;10304097;28;20038;-83
2022/08/18 02:19:07;;;;;;;37.63;29.10;;;19.30;99.90;;;;;;10312830;28;20798;-84
2022/08/18 02:24:08;;;;;;;33.17;27.30;;;19.40;99.90;;;;;;10301996;28;20096;-84
2022/08/18 02:29:08;;;;;;;37.45;28.42;;;19.40;99.90;;;;;;10303814;28;20041;-83
2022/08/18 02:34:09;;;;;;;36.90;26.63;;;19.30;99.90;;;;;;10300819;28;20095;-83
2022/08/18 02:39:10;;;;;;;34.55;28.70;;;19.30;99.90;;;;;;10301453;28;20069;-84
2022/08/18 02:44:10;;;;;;;29.60;24.30;;;19.30;99.90;;;;;;10302807;28;20112;-83
2022/08/18 02:49:11;;;;;;;35.80;27.08;;;19.20;99.90;;;;;;10310293;28;20046;-83
2022/08/18 02:54:12;;;;;;;35.35;27.83;;;19.20;99.90;;;;;;10299473;28;20037;-83
2022/08/18 02:59:15;;;;;;;40.97;33.47;;;19.10;99.90;;;;;;10295261;28;20147;-82
2022/08/18 03:04:22;;;;;;;35.90;29.10;;;19.10;99.90;;;;;;10268042;28;20031;-83
2022/08/18 03:09:23;;;;;;;34.42;27.17;;;19.00;99.90;;;;;;10285437;28;20078;-84
2022/08/18 03:14:24;;;;;;;39.63;29.95;;;18.90;99.90;;;;;;10303119;28;20125;-83
2022/08/18 03:19:27;;;;;;;38.15;29.08;;;18.80;99.90;;;;;;10310980;28;20482;-84
2022/08/18 03:24:28;;;;;;;38.42;28.90;;;18.70;99.90;;;;;;10296877;28;20505;-84
2022/08/18 03:29:28;;;;;;;36.80;27.25;;;18.60;99.90;;;;;;10294093;28;20080;-84
2022/08/18 03:34:30;;;;;;;34.90;26.15;;;18.60;99.90;;;;;;10301207;28;20112;-85
2022/08/18 03:39:30;;;;;;;45.17;33.97;;;18.50;99.90;;;;;;10289907;28;20033;-84
2022/08/18 03:44:35;;;;;;;37.65;29.13;;;18.50;99.90;;;;;;10304967;28;20487;-84
2022/08/18 03:49:37;;;;;;;36.33;27.63;;;18.40;99.90;;;;;;10297824;28;20027;-83
2022/08/18 03:54:38;;;;;;;39.38;29.20;;;18.40;99.90;;;;;;10309945;28;20390;-83
2022/08/18 03:59:42;;;;;;;34.75;28.02;;;18.40;99.90;;;;;;10299222;28;20039;-83
2022/08/18 04:04:43;;;;;;;38.92;30.70;;;18.40;99.90;;;;;;10282943;28;20138;-82
2022/08/18 04:09:44;;;;;;;41.90;31.60;;;18.50;99.90;;;;;;10292798;28;20502;-85
2022/08/18 04:14:47;;;;;;;42.42;32.13;;;18.60;99.90;;;;;;10293504;28;20120;-84
2022/08/18 04:19:48;;;;;;;31.27;25.25;;;18.70;99.90;;;;;;10310501;28;20820;-83
2022/08/18 04:24:50;;;;;;;33.60;25.08;;;18.70;99.90;;;;;;10299328;28;20030;-85
2022/08/18 04:29:50;;;;;;;30.27;24.10;;;18.70;99.90;;;;;;10305406;28;20023;-81
2022/08/18 04:34:51;;;;;;;33.53;25.70;;;18.80;99.90;;;;;;10295621;28;20043;-86
2022/08/18 04:39:51;;;;;;;38.85;31.80;;;18.90;99.90;;;;;;10286868;28;20376;-85
2022/08/18 04:44:52;;;;;;;33.92;25.23;;;19.00;99.90;;;;;;10270621;28;20031;-84
2022/08/18 04:49:53;;;;;;;30.17;24.50;;;19.10;99.90;;;;;;10291731;28;20644;-84
2022/08/18 04:54:54;;;;;;;32.63;26.40;;;19.30;99.90;;;;;;10299278;28;20034;-84
2022/08/18 04:59:56;;;;;;;34.00;27.73;;;19.40;99.90;;;;;;10314392;28;20477;-84
2022/08/18 05:04:57;;;;;;;36.30;27.73;;;19.50;99.90;;;;;;10302405;28;20056;-85
2022/08/18 05:09:58;;;;;;;31.52;27.67;;;19.60;99.90;;;;;;10310726;28;20061;-84
2022/08/18 05:14:59;;;;;;;32.33;26.55;;;19.80;99.90;;;;;;10322608;28;20038;-84
2022/08/18 05:19:59;;;;;;;37.03;31.10;;;19.80;99.90;;;;;;10320484;28;20082;-84
2022/08/18 05:25:00;;;;;;;35.50;27.40;;;20.00;99.90;;;;;;10311535;28;20130;-84
2022/08/18 05:30:01;;;;;;;36.08;27.17;;;20.00;99.90;;;;;;10315914;28;20437;-84
2022/08/18 05:35:05;;;;;;;37.08;30.25;;;20.10;99.90;;;;;;10319914;28;20066;-84
2022/08/18 05:40:06;;;;;;;34.58;26.60;;;20.30;99.90;;;;;;10307481;28;20015;-86
2022/08/18 05:45:15;;;;;;;46.25;34.30;;;20.50;99.90;;;;;;10303025;28;20057;-85
2022/08/18 05:50:19;;;;;;;39.08;31.15;;;20.70;99.90;;;;;;10300821;28;20066;-84
2022/08/18 06:01:27;;;;;;;45.92;32.83;;;21.30;99.90;;;;;;10322861;28;20065;-84
2022/08/18 06:06:30;;;;;;;40.08;27.50;;;21.50;99.90;;;;;;10286016;28;20397;-86
2022/08/18 06:11:31;;;;;;;37.83;27.90;;;21.70;99.90;;;;;;10306181;28;20029;-85
2022/08/18 06:17:20;;;;;;;29.95;25.38;;;22.00;99.90;;;;;;10314391;28;20402;-84
2022/08/18 06:22:35;;;;;;;30.20;23.10;;;22.30;99.90;;;;;;10298993;28;20030;-85
2022/08/18 06:27:59;;;;;;;;;;;22.60;99.90;;;;;;10317623;28;20030;-84
2022/08/18 06:33:09;;;;;;;25.58;20.58;;;22.70;99.90;;;;;;10308667;28;19929;-84
2022/08/18 06:38:44;;;;;;;30.23;21.50;;;23.00;99.90;;;;;;10315353;28;20093;-84
2022/08/18 06:44:10;;;;;;;32.03;19.73;;;23.30;99.90;;;;;;10301566;28;20071;-85
2022/08/18 06:49:20;;;;;;;25.83;19.35;;;23.50;99.90;;;;;;10315884;28;20034;-84
2022/08/18 06:54:20;;;;;;;29.85;20.38;;;23.80;99.90;;;;;;10319300;28;20269;-85
2022/08/18 06:59:33;;;;;;;33.92;21.42;;;24.00;99.90;;;;;;10318013;28;20118;-86
2022/08/18 07:04:41;;;;;;;34.42;19.85;;;24.20;99.90;;;;;;10308350;28;20031;-84
2022/08/18 07:09:42;;;;;;;33.22;18.98;;;24.50;99.90;;;;;;10296959;28;20530;-85
2022/08/18 07:14:47;;;;;;;29.55;16.92;;;24.80;99.90;;;;;;10309133;28;20059;-86
2022/08/18 07:19:59;;;;;;;27.42;16.58;;;25.10;99.90;;;;;;10296768;28;20030;-87
2022/08/18 07:25:03;;;;;;;19.55;13.75;;;25.40;99.90;;;;;;10317313;28;20116;-85
2022/08/18 07:30:18;;;;;;;22.00;13.60;;;25.70;99.90;;;;;;10284854;28;20069;-84
2022/08/18 07:35:42;;;;;;;19.88;12.27;;;25.90;99.90;;;;;;10280720;28;20041;-87
2022/08/18 07:41:03;;;;;;;14.70;11.87;;;26.20;99.90;;;;;;10256177;28;20609;-86
2022/08/18 07:46:24;;;;;;;17.05;12.27;;;26.50;99.90;;;;;;10274867;28;20023;-86
2022/08/18 07:51:52;;;;;;;18.95;11.65;;;26.80;99.90;;;;;;10283633;28;20042;-85
2022/08/18 07:57:17;;;;;;;16.25;11.10;;;27.10;99.90;;;;;;10291481;28;20116;-86
2022/08/18 08:02:58;;;;;;;17.67;11.68;;;27.40;99.90;;;;;;10298223;28;20033;-87
2022/08/18 08:08:09;;;;;;;17.33;11.63;;;27.80;99.90;;;;;;10265595;28;20565;-87
2022/08/18 08:13:40;;;;;;;18.55;11.90;;;28.10;99.90;;;;;;10280733;28;20039;-85
2022/08/18 08:18:57;;;;;;;16.80;10.70;;;28.30;99.90;;;;;;10286295;28;20572;-87
2022/08/18 08:24:19;;;;;;;18.52;11.45;;;28.60;99.60;;;;;;10275444;28;20773;-86
2022/08/18 08:29:42;;;;;;;15.75;9.98;;;28.80;95.40;;;;;;10304461;28;20037;-85
2022/08/18 08:34:58;;;;;;;12.20;9.45;;;29.00;94.50;;;;;;10302922;28;20110;-85
2022/08/18 08:40:08;;;;;;;15.73;10.30;;;29.20;93.00;;;;;;10304632;28;20034;-85
2022/08/18 08:45:22;;;;;;;14.18;10.35;;;29.30;91.70;;;;;;10320188;28;20062;-85
2022/08/18 08:50:27;;;;;;;16.58;10.20;;;29.60;91.00;;;;;;10282016;28;20072;-85
2022/08/18 08:55:32;;;;;;;13.98;9.77;;;29.70;88.90;;;;;;10312184;28;20490;-86
2022/08/18 09:00:35;;;;;;;14.82;11.13;;;29.90;89.90;;;;;;10321171;28;20030;-85
2022/08/18 09:06:09;;;;;;;15.15;10.50;;;30.00;84.00;;;;;;10271537;28;20019;-86
2022/08/18 09:11:36;;;;;;;14.00;10.25;;;30.30;86.70;;;;;;10277385;28;20050;-86
2022/08/18 09:16:51;;;;;;;11.88;9.07;;;30.50;83.20;;;;;;10266715;28;20062;-88
2022/08/18 09:22:03;;;;;;;12.95;8.57;;;30.50;77.90;;;;;;10293939;28;20037;-83
2022/08/18 09:27:12;;;;;;;13.88;10.57;;;30.70;81.30;;;;;;10314552;28;20134;-83
2022/08/18 09:32:19;;;;;;;13.13;8.52;;;30.60;78.30;;;;;;10289660;28;20027;-84
2022/08/18 09:37:45;;;;;;;13.82;10.15;;;30.60;80.30;;;;;;10262101;28;20141;-84
2022/08/18 09:43:12;;;;;;;15.52;10.10;;;30.80;76.60;;;;;;10255279;28;20043;-83
2022/08/18 09:48:13;;;;;;;15.32;9.63;;;30.90;76.10;;;;;;10275152;28;20035;-84
2022/08/18 09:53:31;;;;;;;12.52;10.55;;;31.00;76.00;;;;;;10288211;28;20051;-86
2022/08/18 09:58:46;;;;;;;13.18;10.07;;;31.40;73.70;;;;;;10261520;28;20027;-83
2022/08/18 10:04:13;;;;;;;15.30;9.88;;;31.00;72.50;;;;;;10272979;28;20033;-83
2022/08/18 10:09:42;;;;;;;16.13;10.02;;;31.10;77.30;;;;;;10228719;28;20742;-85
2022/08/18 10:15:04;;;;;;;13.65;9.48;;;31.40;74.60;;;;;;10244489;28;20067;-83
2022/08/18 10:20:37;;;;;;;18.45;10.38;;;31.60;73.80;;;;;;10277349;28;20548;-83
2022/08/18 10:25:38;;;;;;;13.77;11.20;;;31.70;72.10;;;;;;10285768;28;20038;-83
2022/08/18 10:30:38;;;;;;;14.20;10.85;;;31.30;71.50;;;;;;10278901;28;20546;-84
2022/08/18 10:35:39;;;;;;;15.05;10.55;;;31.40;72.80;;;;;;10256046;28;20045;-85
2022/08/18 10:40:42;;;;;;;14.00;11.07;;;31.60;73.50;;;;;;10291299;28;20599;-83
2022/08/18 10:46:37;;;;;;;17.88;11.60;;;31.60;70.90;;;;;;10288282;28;20031;-84
2022/08/18 10:52:00;;;;;;;;;;;31.20;72.00;;;;;;10060719;29;20661;-84
2022/08/18 10:57:57;;;;;;;13.07;11.68;;;31.50;74.10;;;;;;10265672;28;19926;-84
2022/08/18 11:03:19;;;;;;;14.55;10.65;;;31.70;71.20;;;;;;10298327;28;20140;-85
2022/08/18 11:15:18;;;;;;;15.48;12.35;;;31.30;70.20;;;;;;10259543;28;20058;-84
2022/08/18 11:20:22;;;;;;;25.25;11.00;;;31.00;71.80;;;;;;10295518;28;20043;-84
2022/08/18 11:25:34;;;;;;;24.75;11.35;;;31.50;72.70;;;;;;10261108;28;20042;-85
2022/08/18 11:30:39;;;;;;;12.10;10.30;;;32.10;69.90;;;;;;10268247;28;20531;-87
2022/08/18 11:35:51;;;;;;;13.88;10.50;;;32.00;68.90;;;;;;10267308;28;20126;-84
2022/08/18 11:41:19;;;;;;;14.60;10.20;;;32.00;68.10;;;;;;10277531;28;20034;-85
2022/08/18 11:46:19;;;;;;;16.45;10.05;;;31.90;71.30;;;;;;10278327;28;20029;-84
2022/08/18 11:51:25;;;;;;;13.93;9.77;;;31.60;69.50;;;;;;10277048;28;20494;-86
2022/08/18 11:56:29;;;;;;;15.18;10.48;;;31.60;72.90;;;;;;10303055;28;20045;-83
2022/08/18 12:01:41;;;;;;;14.18;10.48;;;31.30;70.80;;;;;;10284264;28;20033;-83
2022/08/18 12:07:05;;;;;;;13.73;9.85;;;31.20;72.20;;;;;;10285949;28;20098;-83
2022/08/18 12:12:13;;;;;;;15.07;9.68;;;31.20;70.00;;;;;;10287201;28;20475;-84
2022/08/18 12:17:14;;;;;;;12.75;9.15;;;31.40;70.10;;;;;;10288140;28;20050;-85
2022/08/18 12:22:18;;;;;;;12.38;9.02;;;31.50;70.20;;;;;;10307982;28;20031;-84
2022/08/18 12:27:22;;;;;;;13.65;9.13;;;31.80;69.80;;;;;;10296578;28;20110;-84
2022/08/18 12:32:25;;;;;;;13.23;9.60;;;31.80;69.70;;;;;;10301769;28;20726;-82
2022/08/18 12:37:28;;;;;;;11.68;9.13;;;31.90;67.70;;;;;;10295144;28;20034;-83
2022/08/18 12:54:22;;;;;;;12.77;9.20;;;31.40;67.30;;;;;;10288278;28;20046;-84
2022/08/18 13:05:48;;;;;;;17.77;10.43;;;32.10;67.40;;;;;;10278033;28;20035;-83
2022/08/18 13:10:49;;;;;;;11.25;8.00;;;32.20;66.80;;;;;;10274371;28;20076;-84
2022/08/18 13:15:50;;;;;;;10.52;7.40;;;32.10;65.10;;;;;;10264380;28;20166;-84
2022/08/18 13:20:50;;;;;;;9.18;7.55;;;32.20;66.50;;;;;;10288479;28;20031;-85
2022/08/18 13:25:51;;;;;;;19.85;9.85;;;32.50;66.00;;;;;;10289698;28;20031;-86
2022/08/18 13:30:52;;;;;;;14.65;8.00;;;32.60;64.50;;;;;;10295309;28;20023;-84
2022/08/18 13:35:53;;;;;;;11.07;7.78;;;32.50;65.00;;;;;;10307073;28;20031;-85
2022/08/18 13:40:57;;;;;;;17.08;9.10;;;32.20;63.60;;;;;;10283871;28;20034;-85
2022/08/18 13:45:58;;;;;;;10.77;8.85;;;32.10;65.40;;;;;;10281477;28;20034;-82
2022/08/18 13:51:01;;;;;;;12.85;9.10;;;32.20;64.20;;;;;;10281464;28;20038;-83
2022/08/18 13:56:02;;;;;;;15.67;8.53;;;32.20;65.40;;;;;;10289026;28;20031;-84
2022/08/18 14:01:06;;;;;;;11.85;8.45;;;32.20;64.30;;;;;;10289056;28;20030;-83
2022/08/18 14:06:07;;;;;;;12.02;6.88;;;32.00;63.50;;;;;;10283069;28;20023;-83
2022/08/18 14:11:08;;;;;;;9.98;7.18;;;31.70;66.20;;;;;;10280075;28;20065;-83
2022/08/18 14:16:09;;;;;;;15.15;8.27;;;31.70;64.90;;;;;;10273136;28;20115;-82
2022/08/18 14:31:48;;;;;;;10.55;8.25;;;31.10;62.30;;;;;;10288460;28;20050;-88
2022/08/18 14:36:48;;;;;;;13.77;8.30;;;30.70;64.80;;;;;;10273223;28;20050;-85
2022/08/18 14:41:49;;;;;;;11.55;8.52;;;30.70;65.30;;;;;;10295790;28;20394;-83
2022/08/18 14:46:50;;;;;;;13.05;8.38;;;30.80;65.90;;;;;;10293800;28;20027;-84
2022/08/18 14:51:50;;;;;;;9.15;7.07;;;30.70;66.00;;;;;;10277784;28;20077;-84
2022/08/18 14:56:51;;;;;;;14.02;8.18;;;30.50;68.30;;;;;;10273703;28;20043;-84
2022/08/18 15:01:52;;;;;;;13.63;9.52;;;30.40;67.20;;;;;;10274778;28;20560;-85
2022/08/18 15:06:53;;;;;;;18.15;10.10;;;30.40;67.00;;;;;;10263019;28;20455;-84
2022/08/18 15:11:58;;;;;;;19.00;12.93;;;30.20;67.00;;;;;;10262478;28;20489;-87
2022/08/18 15:16:59;;;;;;;12.05;8.65;;;30.20;67.20;;;;;;10283256;28;20058;-82
2022/08/18 15:27:19;;;;;;;13.32;8.52;;;30.20;70.40;;;;;;10259506;28;20031;-82
2022/08/18 15:32:21;;;;;;;14.45;8.45;;;30.20;69.30;;;;;;10284625;28;20027;-82
2022/08/18 15:37:21;;;;;;;12.32;8.43;;;30.10;68.80;;;;;;10289517;28;20490;-84
2022/08/18 15:42:22;;;;;;;11.57;8.30;;;30.00;69.00;;;;;;10296005;28;20026;-84
2022/08/18 15:47:23;;;;;;;10.52;7.40;;;29.80;68.90;;;;;;10280492;28;20136;-83
2022/08/18 15:52:24;;;;;;;12.55;9.05;;;29.70;69.40;;;;;;10284661;28;20030;-83
2022/08/18 15:57:24;;;;;;;11.60;7.47;;;29.60;69.50;;;;;;10291645;28;20070;-84
2022/08/18 16:02:25;;;;;;;9.18;7.90;;;29.40;70.90;;;;;;10292082;28;20042;-83
2022/08/18 16:07:27;;;;;;;12.73;7.85;;;29.30;70.90;;;;;;10274850;28;20604;-83
2022/08/18 16:12:27;;;;;;;9.32;7.30;;;29.20;71.80;;;;;;10278850;28;20023;-83
2022/08/18 16:17:30;;;;;;;12.13;8.30;;;29.20;72.10;;;;;;10292222;28;20090;-86
2022/08/18 16:22:31;;;;;;;11.93;7.80;;;29.10;71.90;;;;;;10281221;28;20035;-83
2022/08/18 16:27:33;;;;;;;10.60;7.63;;;28.90;71.60;;;;;;10287825;28;20054;-82
2022/08/18 16:32:34;;;;;;;15.43;7.95;;;28.70;72.00;;;;;;10288990;28;20081;-83
2022/08/18 16:37:35;;;;;;;14.35;8.15;;;28.60;72.40;;;;;;10278959;28;20047;-85
2022/08/18 16:42:35;;;;;;;12.02;8.00;;;28.40;73.00;;;;;;10278252;28;20038;-83
2022/08/18 16:47:37;;;;;;;12.30;7.60;;;28.20;73.70;;;;;;10267750;28;20031;-84
2022/08/18 16:52:39;;;;;;;11.43;8.75;;;28.10;74.00;;;;;;10280711;28;20022;-84
2022/08/18 17:08:24;;;;;;;11.18;8.27;;;27.60;76.00;;;;;;10294797;28;20077;-84
2022/08/18 17:13:25;;;;;;;13.10;8.57;;;27.30;77.50;;;;;;10289204;28;20042;-84
2022/08/18 17:18:26;;;;;;;11.80;8.13;;;27.10;77.80;;;;;;10294423;28;20039;-86
2022/08/18 17:23:26;;;;;;;12.85;9.43;;;26.90;78.80;;;;;;10284092;28;20022;-85
2022/08/18 17:28:45;;;;;;;11.98;7.97;;;26.70;78.80;;;;;;10292677;28;20046;-84
2022/08/18 17:33:45;;;;;;;12.10;8.88;;;26.50;79.70;;;;;;10298732;28;20035;-84
2022/08/18 17:38:57;;;;;;;11.65;8.57;;;26.30;81.80;;;;;;10287608;28;20082;-86
2022/08/18 17:43:57;;;;;;;11.55;8.63;;;26.00;82.60;;;;;;10286938;28;20063;-85
2022/08/18 17:49:05;;;;;;;12.52;8.93;;;25.70;83.90;;;;;;10282965;28;20836;-84
2022/08/18 17:54:17;;;;;;;15.55;8.48;;;25.50;84.60;;;;;;10266679;28;20027;-84
2022/08/18 17:59:29;;;;;;;13.98;8.85;;;25.30;85.50;;;;;;10273385;28;20054;-85
2022/08/18 18:04:29;;;;;;;13.68;8.50;;;25.10;86.70;;;;;;10285956;28;20407;-84
2022/08/18 18:09:31;;;;;;;10.77;8.40;;;24.90;87.70;;;;;;10294359;28;20046;-89
2022/08/18 18:14:40;;;;;;;14.88;8.98;;;24.70;89.60;;;;;;10275051;28;20069;-85
2022/08/18 18:19:42;;;;;;;11.38;8.85;;;24.60;90.20;;;;;;10284516;28;20438;-87
2022/08/18 18:24:55;;;;;;;15.63;9.40;;;24.40;91.30;;;;;;10277779;28;20033;-85
2022/08/18 18:30:05;;;;;;;10.32;8.98;;;24.20;92.00;;;;;;10263825;28;20621;-84
2022/08/18 18:35:22;;;;;;;13.43;8.70;;;24.10;92.60;;;;;;10290686;28;20049;-82
2022/08/18 18:40:34;;;;;;;14.48;10.45;;;24.00;94.00;;;;;;10282995;28;20035;-82
2022/08/18 18:45:36;;;;;;;12.18;10.30;;;23.90;95.00;;;;;;10266435;28;20033;-85
2022/08/18 18:50:53;;;;;;;16.48;9.90;;;23.80;96.30;;;;;;10293999;28;20037;-84
2022/08/18 18:56:11;;;;;;;19.40;11.77;;;23.70;97.20;;;;;;10279623;28;20037;-83
2022/08/18 19:01:32;;;;;;;26.02;13.50;;;23.60;97.50;;;;;;10296080;28;20489;-86
2022/08/18 19:06:53;;;;;;;22.45;12.98;;;23.70;98.10;;;;;;10268094;28;20410;-84
2022/08/18 19:12:12;;;;;;;20.08;12.02;;;23.70;98.30;;;;;;10280833;28;20122;-87
2022/08/18 19:17:19;;;;;;;20.40;12.73;;;23.70;98.60;;;;;;10258254;28;20042;-86
2022/08/18 19:22:26;;;;;;;17.95;12.02;;;23.60;99.20;;;;;;10297490;28;20098;-82
2022/08/18 19:27:39;;;;;;;14.63;10.77;;;23.60;99.40;;;;;;10285412;28;20018;-81
2022/08/18 19:32:48;;;;;;;16.75;10.88;;;23.50;99.80;;;;;;10277374;28;20039;-81
2022/08/18 19:38:08;;;;;;;14.77;10.65;;;23.40;99.90;;;;;;10284260;28;20394;-81
2022/08/18 19:43:24;;;;;;;15.20;10.38;;;23.40;99.90;;;;;;10280773;28;20034;-82
2022/08/18 19:48:39;;;;;;;14.32;11.05;;;23.40;99.90;;;;;;10275931;28;20037;-81
2022/08/18 19:53:56;;;;;;;13.52;10.52;;;23.30;99.90;;;;;;10286084;28;20109;-81
2022/08/18 19:59:33;;;;;;;17.15;11.63;;;23.40;99.90;;;;;;10292424;28;20037;-82
2022/08/18 20:04:48;;;;;;;15.40;10.85;;;23.30;99.90;;;;;;10145409;28;20050;-81
2022/08/18 20:10:25;;;;;;;15.30;10.43;;;23.30;99.90;;;;;;10279254;28;20848;-82
2022/08/18 20:15:27;;;;;;;14.73;10.57;;;23.20;99.90;;;;;;10256792;28;20306;-81
2022/08/18 20:20:36;;;;;;;13.88;9.95;;;23.10;99.90;;;;;;10279930;28;20038;-82
2022/08/18 20:25:42;;;;;;;15.20;9.88;;;23.00;99.90;;;;;;10279636;28;20523;-80
2022/08/18 20:31:04;;;;;;;16.70;9.57;;;23.00;99.90;;;;;;10271241;28;20442;-81
2022/08/18 20:36:17;;;;;;;14.65;9.05;;;23.00;99.90;;;;;;10289796;28;20058;-81
2022/08/18 20:41:27;;;;;;;11.95;8.88;;;23.10;99.90;;;;;;10307971;28;20031;-80
2022/08/18 20:46:39;;;;;;;14.50;9.55;;;23.10;99.90;;;;;;10301090;28;20034;-80
2022/08/18 20:51:48;;;;;;;15.10;10.02;;;23.00;99.90;;;;;;10279205;28;20038;-80
2022/08/18 20:56:54;;;;;;;15.20;10.35;;;23.00;99.90;;;;;;10285995;28;20034;-80
2022/08/18 21:02:02;;;;;;;13.52;9.88;;;23.00;99.90;;;;;;10297278;28;20042;-81
2022/08/18 21:07:03;;;;;;;16.40;10.23;;;23.00;99.90;;;;;;10285524;28;20051;-80
2022/08/18 21:12:04;;;;;;;18.77;11.10;;;22.80;99.90;;;;;;10295443;28;20035;-80
2022/08/18 21:17:12;;;;;;;16.02;11.40;;;22.70;99.90;;;;;;10287500;28;20043;-80
2022/08/18 21:22:13;;;;;;;18.77;11.43;;;22.70;99.90;;;;;;10283327;28;20030;-80
2022/08/18 21:27:37;;;;;;;16.35;10.10;;;22.70;99.90;;;;;;10279957;28;20035;-81
2022/08/18 21:32:38;;;;;;;17.40;11.73;;;22.70;99.90;;;;;;10296231;28;20027;-80
2022/08/18 21:37:40;;;;;;;24.30;12.35;;;22.70;99.90;;;;;;10281993;28;20047;-80
2022/08/18 21:42:43;;;;;;;15.77;11.70;;;22.70;99.90;;;;;;10284752;28;20038;-80
2022/08/18 21:47:55;;;;;;;15.52;10.82;;;22.70;99.90;;;;;;10290880;28;20253;-80
2022/08/18 21:53:14;;;;;;;21.63;12.70;;;22.80;99.90;;;;;;10281099;28;20027;-81
2022/08/18 21:58:34;;;;;;;21.33;11.57;;;22.90;99.90;;;;;;10299335;28;20121;-80
2022/08/18 22:03:47;;;;;;;22.13;12.40;;;23.00;99.90;;;;;;10282437;28;20037;-80
2022/08/18 22:14:41;;;;;;;17.67;12.18;;;22.90;99.90;;;;;;10281255;28;20046;-81
2022/08/18 22:19:41;;;;;;;17.73;13.18;;;22.90;99.90;;;;;;10290821;28;20053;-81
2022/08/18 22:24:42;;;;;;;19.48;13.80;;;22.80;99.90;;;;;;10288067;28;20367;-81
2022/08/18 22:29:43;;;;;;;20.90;14.63;;;22.70;99.90;;;;;;10287274;28;20023;-81
2022/08/18 22:34:43;;;;;;;20.33;14.43;;;22.70;99.90;;;;;;10293767;28;20117;-80
2022/08/18 22:39:53;;;;;;;22.83;15.00;;;22.60;99.90;;;;;;10297814;28;20166;-80
2022/08/18 22:44:54;;;;;;;19.90;13.88;;;22.60;99.90;;;;;;10277826;28;20037;-80
2022/08/18 22:49:55;;;;;;;23.27;15.65;;;22.50;99.90;;;;;;10287318;28;20034;-81
2022/08/18 22:54:57;;;;;;;21.85;15.18;;;22.30;99.90;;;;;;10294264;28;20116;-80
2022/08/18 22:59:57;;;;;;;22.02;15.52;;;22.00;99.90;;;;;;10283934;28;20031;-80
2022/08/18 23:04:59;;;;;;;21.30;14.35;;;21.90;99.90;;;;;;10294104;28;20034;-81
2022/08/18 23:10:00;;;;;;;17.77;13.38;;;21.80;99.90;;;;;;10280596;28;20053;-81
2022/08/18 23:15:08;;;;;;;24.27;15.35;;;21.80;99.90;;;;;;10287080;28;20033;-80
2022/08/18 23:20:13;;;;;;;24.00;14.50;;;21.70;99.90;;;;;;10297873;28;20049;-80
2022/08/18 23:25:14;;;;;;;23.50;15.43;;;21.60;99.90;;;;;;10273316;28;20392;-81
2022/08/18 23:30:14;;;;;;;22.35;14.98;;;21.50;99.90;;;;;;10284038;28;20033;-80
2022/08/18 23:35:15;;;;;;;20.10;14.20;;;21.50;99.90;;;;;;10278405;28;20557;-80
2022/08/18 23:40:16;;;;;;;23.60;14.40;;;21.50;99.90;;;;;;10272352;28;20034;-81
2022/08/18 23:45:17;;;;;;;20.13;14.73;;;21.50;99.90;;;;;;10269624;28;20019;-82
2022/08/18 23:50:18;;;;;;;22.05;15.77;;;21.40;99.90;;;;;;10269159;28;20569;-81
2022/08/18 23:55:18;;;;;;;22.67;15.80;;;21.30;99.90;;;;;;10270897;28;20042;-82
